createdAt,value
2023-02-22T00:00:40.606Z,98858.00
2023-02-22T00:03:11.109Z,98858.28
2023-02-22T00:05:40.897Z,98857.66
2023-02-22T00:08:09.990Z,98854.41
2023-02-22T00:10:38.419Z,98853.56
2023-02-22T00:13:08.116Z,98850.03
2023-02-22T00:15:35.700Z,98851.09
2023-02-22T00:18:04.453Z,98841.63
2023-02-22T00:20:32.755Z,98842.44
2023-02-22T00:23:01.468Z,98844.31
2023-02-22T00:25:28.378Z,98837.28
2023-02-22T00:27:56.233Z,98844.53
2023-02-22T00:30:26.748Z,98842.06
2023-02-22T00:32:55.974Z,98842.06
2023-02-22T00:35:25.251Z,98845.00
2023-02-22T00:37:56.070Z,98830.72
2023-02-22T00:40:25.362Z,98832.59
2023-02-22T00:42:52.911Z,98840.66
2023-02-22T00:45:21.697Z,98830.97
2023-02-22T00:47:48.632Z,98831.19
2023-02-22T00:50:16.424Z,98842.19
2023-02-22T00:52:43.302Z,98838.66
2023-02-22T00:55:17.793Z,98837.03
2023-02-22T00:57:45.303Z,98836.22
2023-02-22T01:00:17.898Z,98842.66
2023-02-22T01:02:45.058Z,98839.94
2023-02-22T01:05:14.821Z,98845.34
2023-02-22T01:07:42.265Z,98844.53
2023-02-22T01:10:12.029Z,98841.84
2023-02-22T01:12:38.931Z,98833.16
2023-02-22T01:15:10.433Z,98837.75
2023-02-22T01:17:37.162Z,98835.06
2023-02-22T01:20:10.198Z,98834.66
2023-02-22T01:22:37.541Z,98830.34
2023-02-22T01:25:07.319Z,98829.50
2023-02-22T01:27:36.104Z,98832.22
2023-02-22T01:30:08.659Z,98823.31
2023-02-22T01:32:36.444Z,98821.69
2023-02-22T01:35:05.073Z,98822.72
2023-02-22T01:37:32.460Z,98830.00
2023-02-22T01:40:00.566Z,98824.84
2023-02-22T01:42:29.273Z,98821.09
2023-02-22T01:45:38.526Z,98817.56
2023-02-22T01:48:09.458Z,98820.75
2023-02-22T01:50:40.351Z,98808.31
2023-02-22T01:53:09.260Z,98814.75
2023-02-22T01:55:36.472Z,98804.81
2023-02-22T01:58:05.064Z,98796.13
2023-02-22T02:00:33.533Z,98804.81
2023-02-22T02:03:04.674Z,98801.28
2023-02-22T02:05:34.342Z,98802.56
2023-02-22T02:08:08.892Z,98800.72
2023-02-22T02:10:36.031Z,98798.25
2023-02-22T02:13:04.013Z,98797.41
2023-02-22T02:15:33.735Z,98798.47
2023-02-22T02:18:05.041Z,98799.31
2023-02-22T02:20:40.659Z,98795.78
2023-02-22T02:23:24.651Z,98790.41
2023-02-22T02:26:22.880Z,98788.75
2023-02-22T02:29:25.610Z,98788.16
2023-02-22T02:32:22.768Z,98789.22
2023-02-22T02:34:53.795Z,98781.59
2023-02-22T02:37:27.689Z,98787.81
2023-02-22T02:39:59.260Z,98783.50
2023-02-22T02:42:34.684Z,98783.50
2023-02-22T02:45:10.017Z,98783.50
2023-02-22T02:47:42.432Z,98779.97
2023-02-22T02:50:11.668Z,98781.81
2023-02-22T02:52:40.812Z,98784.53
2023-02-22T02:55:11.308Z,98779.97
2023-02-22T02:57:41.462Z,98774.59
2023-02-22T03:00:22.648Z,98776.44
2023-02-22T03:03:10.364Z,98773.97
2023-02-22T03:05:59.541Z,98768.84
2023-02-22T03:08:34.655Z,98779.84
2023-02-22T03:11:15.123Z,98772.81
2023-02-22T03:13:52.120Z,98771.78
2023-02-22T03:16:29.725Z,98771.16
2023-02-22T03:19:08.906Z,98771.16
2023-02-22T03:21:47.996Z,98768.47
2023-02-22T03:24:21.484Z,98772.22
2023-02-22T03:26:54.018Z,98764.16
2023-02-22T03:29:23.815Z,98771.16
2023-02-22T03:31:53.652Z,98766.84
2023-02-22T03:34:27.560Z,98764.16
2023-02-22T03:36:59.143Z,98763.31
2023-02-22T03:39:31.088Z,98760.63
2023-02-22T03:42:06.902Z,98759.00
2023-02-22T03:44:38.417Z,98759.22
2023-02-22T03:47:09.561Z,98758.41
2023-02-22T03:49:42.808Z,98753.03
2023-02-22T03:52:10.234Z,98751.38
2023-02-22T03:54:38.612Z,98755.97
2023-02-22T03:57:09.964Z,98753.25
2023-02-22T03:59:40.625Z,98744.34
2023-02-22T04:02:07.561Z,98744.56
2023-02-22T04:04:34.608Z,98741.84
2023-02-22T04:07:03.538Z,98752.63
2023-02-22T04:09:30.660Z,98755.13
2023-02-22T04:11:57.663Z,98744.56
2023-02-22T04:14:25.801Z,98747.25
2023-02-22T04:16:54.229Z,98741.84
2023-02-22T04:19:21.323Z,98741.84
2023-02-22T04:21:50.637Z,98739.16
2023-02-22T04:24:24.045Z,98736.69
2023-02-22T04:26:51.142Z,98738.59
2023-02-22T04:29:19.103Z,98733.22
2023-02-22T04:31:46.011Z,98737.75
2023-02-22T04:34:12.928Z,98731.53
2023-02-22T04:36:42.393Z,98736.94
2023-02-22T04:39:09.687Z,98732.59
2023-02-22T04:41:37.939Z,98729.34
2023-02-22T04:44:06.662Z,98726.44
2023-02-22T04:46:34.322Z,98731.81
2023-02-22T04:49:02.800Z,98725.81
2023-02-22T04:51:32.270Z,98723.97
2023-02-22T04:54:07.438Z,98723.34
2023-02-22T04:56:38.260Z,98735.75
2023-02-22T04:59:05.933Z,98723.34
2023-02-22T05:01:33.727Z,98721.72
2023-02-22T05:04:02.159Z,98725.47
2023-02-22T05:06:29.116Z,98717.41
2023-02-22T05:08:55.964Z,98721.13
2023-02-22T05:11:22.903Z,98716.78
2023-02-22T05:13:51.328Z,98725.69
2023-02-22T05:16:18.366Z,98720.53
2023-02-22T05:18:45.372Z,98717.63
2023-02-22T05:21:13.596Z,98713.31
2023-02-22T05:23:41.455Z,98707.31
2023-02-22T05:26:10.019Z,98712.69
2023-02-22T05:28:38.411Z,98711.63
2023-02-22T05:31:07.541Z,98712.47
2023-02-22T05:33:34.470Z,98712.81
2023-02-22T05:36:01.358Z,98710.97
2023-02-22T05:38:28.617Z,98709.09
2023-02-22T05:40:56.936Z,98717.97
2023-02-22T05:43:23.845Z,98705.69
2023-02-22T05:45:50.725Z,98708.38
2023-02-22T05:48:20.693Z,98711.69
2023-02-22T05:50:49.951Z,98700.44
2023-02-22T05:53:16.986Z,98709.34
2023-02-22T05:55:46.203Z,98704.31
2023-02-22T05:58:13.486Z,98702.00
2023-02-22T06:00:40.461Z,98701.28
2023-02-22T06:03:09.376Z,98703.06
2023-02-22T06:05:37.894Z,98702.09
2023-02-22T06:08:06.804Z,98704.81
2023-02-22T06:10:33.909Z,98700.38
2023-02-22T06:13:01.925Z,98712.41
2023-02-22T06:15:29.658Z,98711.00
2023-02-22T06:17:57.878Z,98700.91
2023-02-22T06:20:27.302Z,98703.50
2023-02-22T06:22:56.630Z,98698.59
2023-02-22T06:25:25.208Z,98702.19
2023-02-22T06:27:52.387Z,98710.16
2023-02-22T06:30:21.612Z,98713.50
2023-02-22T06:32:48.539Z,98708.25
2023-02-22T06:35:16.121Z,98709.38
2023-02-22T06:37:42.966Z,98719.47
2023-02-22T06:40:12.488Z,98718.16
2023-02-22T06:42:39.957Z,98717.09
2023-02-22T06:45:07.614Z,98717.44
2023-02-22T06:47:38.508Z,98714.75
2023-02-22T06:50:05.789Z,98720.38
2023-02-22T06:52:32.685Z,98722.00
2023-02-22T06:54:59.489Z,98723.06
2023-02-22T06:57:27.636Z,98720.06
2023-02-22T06:59:54.485Z,98726.06
2023-02-22T07:02:21.295Z,98716.81
2023-02-22T07:04:48.154Z,98729.69
2023-02-22T07:07:14.998Z,98723.38
2023-02-22T07:09:42.187Z,98719.28
2023-02-22T07:12:10.306Z,98714.38
2023-02-22T07:14:38.506Z,98715.41
2023-02-22T07:17:05.374Z,98716.50
2023-02-22T07:19:32.146Z,98718.63
2023-02-22T07:21:59.413Z,98719.66
2023-02-22T07:24:28.381Z,98712.06
2023-02-22T07:26:55.714Z,98710.63
2023-02-22T07:29:22.633Z,98716.03
2023-02-22T07:31:51.060Z,98711.94
2023-02-22T07:34:18.013Z,98712.16
2023-02-22T07:36:44.902Z,98721.53
2023-02-22T07:39:11.820Z,98720.34
2023-02-22T07:41:38.773Z,98717.31
2023-02-22T07:44:14.561Z,98715.91
2023-02-22T07:46:41.423Z,98714.28
2023-02-22T07:49:09.613Z,98715.56
2023-02-22T07:51:36.466Z,98718.50
2023-02-22T07:54:03.344Z,98713.59
2023-02-22T07:56:30.203Z,98717.34
2023-02-22T07:58:57.096Z,98730.22
2023-02-22T08:01:24.727Z,98728.81
2023-02-22T08:03:52.648Z,98730.09
2023-02-22T08:06:21.091Z,98732.47
2023-02-22T08:08:47.941Z,98723.78
2023-02-22T08:11:15.095Z,98725.06
2023-02-22T08:13:42.090Z,98724.47
2023-02-22T08:16:09.148Z,98722.84
2023-02-22T08:18:38.271Z,98719.34
2023-02-22T08:21:05.477Z,98715.94
2023-02-22T08:23:34.497Z,98721.91
2023-02-22T08:26:05.383Z,98725.78
2023-02-22T08:28:32.374Z,98721.56
2023-02-22T08:30:59.310Z,98719.66
2023-02-22T08:33:26.301Z,98720.28
2023-02-22T08:35:53.213Z,98715.34
2023-02-22T08:38:22.510Z,98716.19
2023-02-22T08:40:51.222Z,98712.41
2023-02-22T08:43:18.497Z,98715.34
2023-02-22T08:45:46.076Z,98707.03
2023-02-22T08:48:14.065Z,98707.84
2023-02-22T08:50:41.951Z,98700.34
2023-02-22T08:53:10.623Z,98701.19
2023-02-22T08:55:38.696Z,98709.00
2023-02-22T08:58:10.289Z,98702.81
2023-02-22T09:00:38.801Z,98717.91
2023-02-22T09:03:07.345Z,98708.75
2023-02-22T09:05:34.379Z,98711.47
2023-02-22T09:08:01.698Z,98710.44
2023-02-22T09:10:31.446Z,98709.59
2023-02-22T09:13:00.609Z,98709.59
2023-02-22T09:15:29.118Z,98713.13
2023-02-22T09:17:56.306Z,98712.63
2023-02-22T09:20:25.000Z,98710.75
2023-02-22T09:22:52.746Z,98703.50
2023-02-22T09:25:23.399Z,98708.91
2023-02-22T09:27:51.234Z,98706.31
2023-02-22T09:30:23.588Z,98705.00
2023-02-22T09:32:54.070Z,98705.84
2023-02-22T09:35:26.976Z,98703.16
2023-02-22T09:37:55.222Z,98711.84
2023-02-22T09:40:25.913Z,98707.03
2023-02-22T09:43:02.474Z,98713.47
2023-02-22T09:45:36.849Z,98704.06
2023-02-22T09:48:21.294Z,98709.47
2023-02-22T09:50:51.687Z,98715.69
2023-02-22T09:53:31.618Z,98713.00
2023-02-22T09:56:05.057Z,98721.06
2023-02-22T09:58:34.481Z,98722.72
2023-02-22T10:01:18.809Z,98724.38
2023-02-22T10:03:55.539Z,98716.03
2023-02-22T10:06:24.933Z,98717.91
2023-02-22T10:08:56.488Z,98721.41
2023-02-22T10:11:37.613Z,98718.38
2023-02-22T10:14:20.098Z,98720.25
2023-02-22T10:16:53.248Z,98728.09
2023-02-22T10:19:31.603Z,98722.72
2023-02-22T10:22:28.613Z,98719.22
2023-02-22T10:25:00.709Z,98724.25
2023-02-22T10:27:32.827Z,98720.75
2023-02-22T10:30:12.806Z,98722.63
2023-02-22T10:32:53.157Z,98722.84
2023-02-22T10:35:25.697Z,98722.84
2023-02-22T10:37:56.281Z,98718.47
2023-02-22T10:40:32.204Z,98716.63
2023-02-22T10:43:02.836Z,98723.44
2023-02-22T10:45:35.958Z,98723.44
2023-02-22T10:48:08.599Z,98725.53
2023-02-22T10:50:39.829Z,98724.72
2023-02-22T10:53:07.509Z,98724.09
2023-02-22T10:55:34.585Z,98723.03
2023-02-22T10:58:07.452Z,98731.13
2023-02-22T11:00:37.448Z,98730.56
2023-02-22T11:03:15.594Z,98738.19
2023-02-22T11:05:44.128Z,98731.75
2023-02-22T11:08:16.655Z,98732.56
2023-02-22T11:10:44.005Z,98727.41
2023-02-22T11:13:18.629Z,98727.03
2023-02-22T11:15:45.672Z,98729.72
2023-02-22T11:18:24.925Z,98723.53
2023-02-22T11:21:02.373Z,98729.97
2023-02-22T11:23:29.736Z,98725.06
2023-02-22T11:26:07.536Z,98717.22
2023-02-22T11:28:35.224Z,98718.50
2023-02-22T11:31:14.501Z,98718.75
2023-02-22T11:33:49.018Z,98717.09
2023-02-22T11:36:31.264Z,98719.19
2023-02-22T11:39:00.842Z,98721.06
2023-02-22T11:41:34.975Z,98714.50
2023-02-22T11:44:23.624Z,98707.50
2023-02-22T11:46:52.044Z,98709.63
2023-02-22T11:49:20.099Z,98706.94
2023-02-22T11:52:06.709Z,98710.09
2023-02-22T11:54:53.096Z,98708.22
2023-02-22T11:57:38.470Z,98703.06
2023-02-22T12:00:16.372Z,98695.22
2023-02-22T12:03:13.010Z,98692.97
2023-02-22T12:05:59.648Z,98695.69
2023-02-22T12:08:37.723Z,98701.28
2023-02-22T12:11:13.870Z,98695.91
2023-02-22T12:13:59.321Z,98692.66
2023-02-22T12:16:38.100Z,98691.81
2023-02-22T12:19:15.003Z,98691.81
2023-02-22T12:21:46.665Z,98687.59
2023-02-22T12:24:19.369Z,98698.00
2023-02-22T12:26:50.503Z,98697.06
2023-02-22T12:29:26.798Z,98708.31
2023-02-22T12:32:00.505Z,98700.44
2023-02-22T12:34:35.903Z,98697.41
2023-02-22T12:37:13.055Z,98697.28
2023-02-22T12:39:53.562Z,98693.63
2023-02-22T12:42:28.575Z,98693.72
2023-02-22T12:45:01.060Z,98698.63
2023-02-22T12:47:35.486Z,98698.41
2023-02-22T12:50:11.719Z,98693.00
2023-02-22T12:52:44.545Z,98691.94
2023-02-22T12:55:16.830Z,98690.91
2023-02-22T12:57:49.002Z,98688.78
2023-02-22T13:00:23.134Z,98691.72
2023-02-22T13:02:58.802Z,98693.59
2023-02-22T13:05:26.173Z,98691.94
2023-02-22T13:08:19.521Z,98692.78
2023-02-22T13:11:10.936Z,98692.78
2023-02-22T13:13:54.282Z,98687.06
2023-02-22T13:16:32.893Z,98685.63
2023-02-22T13:19:04.909Z,98686.78
2023-02-22T13:21:41.113Z,98683.06
2023-02-22T13:24:18.599Z,98686.56
2023-02-22T13:26:51.411Z,98678.47
2023-02-22T13:29:23.276Z,98686.56
2023-02-22T13:32:04.492Z,98680.13
2023-02-22T13:34:46.709Z,98674.75
2023-02-22T13:37:36.004Z,98668.28
2023-02-22T13:40:39.231Z,98677.44
2023-02-22T13:43:25.140Z,98683.63
2023-02-22T13:46:12.609Z,98677.44
2023-02-22T13:49:03.132Z,98678.47
2023-02-22T13:51:56.670Z,98674.13
2023-02-22T13:54:31.278Z,98679.28
2023-02-22T13:56:58.217Z,98682.81
2023-02-22T13:59:30.121Z,98668.50
2023-02-22T14:01:58.912Z,98669.06
2023-02-22T14:04:38.256Z,98680.06
2023-02-22T14:07:40.807Z,98669.31
2023-02-22T14:10:46.629Z,98667.69
2023-02-22T14:13:17.201Z,98673.34
2023-02-22T14:16:22.909Z,98671.88
2023-02-22T14:19:00.047Z,98667.63
2023-02-22T14:21:26.962Z,98659.34
2023-02-22T14:23:55.920Z,98664.03
2023-02-22T14:26:26.867Z,98664.09
2023-02-22T14:28:58.101Z,98667.97
2023-02-22T14:31:35.931Z,98667.00
2023-02-22T14:34:10.024Z,98662.22
2023-02-22T14:36:44.699Z,98673.69
2023-02-22T14:39:17.929Z,98669.19
2023-02-22T14:41:51.621Z,98670.06
2023-02-22T14:44:27.556Z,98666.84
2023-02-22T14:46:56.940Z,98667.38
2023-02-22T14:49:28.460Z,98669.72
2023-02-22T14:51:59.535Z,98664.84
2023-02-22T14:54:32.895Z,98668.28
2023-02-22T14:57:14.812Z,98666.91
2023-02-22T14:59:58.926Z,98666.81
2023-02-22T15:02:26.166Z,98666.72
2023-02-22T15:04:54.523Z,98665.09
2023-02-22T15:07:27.440Z,98659.94
2023-02-22T15:10:25.329Z,98657.75
2023-02-22T15:12:59.056Z,98663.03
2023-02-22T15:15:27.602Z,98660.50
2023-02-22T15:17:56.531Z,98657.25
2023-02-22T15:20:25.707Z,98662.88
2023-02-22T15:22:59.459Z,98659.94
2023-02-22T15:25:28.793Z,98660.44
2023-02-22T15:28:01.693Z,98657.97
2023-02-22T15:30:32.982Z,98658.22
2023-02-22T15:33:14.730Z,98663.84
2023-02-22T15:35:42.432Z,98661.91
2023-02-22T15:38:20.200Z,98666.72
2023-02-22T15:40:50.747Z,98669.66
2023-02-22T15:43:24.170Z,98669.91
2023-02-22T15:45:52.736Z,98662.63
2023-02-22T15:48:19.870Z,98665.81
2023-02-22T15:51:10.561Z,98665.81
2023-02-22T15:53:43.120Z,98670.06
2023-02-22T15:56:14.592Z,98665.50
2023-02-22T15:58:43.297Z,98671.13
2023-02-22T16:01:18.766Z,98672.19
2023-02-22T16:03:48.966Z,98670.56
2023-02-22T16:06:28.625Z,98671.63
2023-02-22T16:08:58.790Z,98672.69
2023-02-22T16:11:30.594Z,98671.88
2023-02-22T16:14:01.153Z,98674.59
2023-02-22T16:16:32.307Z,98676.44
2023-02-22T16:19:37.701Z,98674.81
2023-02-22T16:22:13.576Z,98677.75
2023-02-22T16:24:41.010Z,98672.38
2023-02-22T16:27:18.837Z,98678.56
2023-02-22T16:30:02.435Z,98675.31
2023-02-22T16:32:31.492Z,98673.44
2023-02-22T16:34:58.341Z,98669.31
2023-02-22T16:37:25.364Z,98667.69
2023-02-22T16:39:52.208Z,98671.44
2023-02-22T16:42:24.082Z,98670.88
2023-02-22T16:44:52.527Z,98671.94
2023-02-22T16:47:19.565Z,98671.13
2023-02-22T16:49:52.871Z,98674.97
2023-02-22T16:52:20.658Z,98679.06
2023-02-22T16:54:48.126Z,98673.16
2023-02-22T16:57:20.837Z,98665.91
2023-02-22T16:59:52.040Z,98678.06
2023-02-22T17:02:19.978Z,98671.13
2023-02-22T17:04:49.911Z,98675.22
2023-02-22T17:07:20.604Z,98679.31
2023-02-22T17:09:47.485Z,98676.44
2023-02-22T17:12:14.351Z,98677.34
2023-02-22T17:14:45.804Z,98679.31
2023-02-22T17:17:13.476Z,98678.59
2023-02-22T17:19:40.264Z,98690.28
2023-02-22T17:22:09.435Z,98679.03
2023-02-22T17:24:39.231Z,98677.22
2023-02-22T17:27:06.104Z,98682.13
2023-02-22T17:29:32.926Z,98681.66
2023-02-22T17:32:00.131Z,98685.97
2023-02-22T17:34:28.073Z,98683.59
2023-02-22T17:36:55.011Z,98692.03
2023-02-22T17:39:21.970Z,98689.88
2023-02-22T17:41:57.028Z,98693.97
2023-02-22T17:44:24.582Z,98691.03
2023-02-22T17:46:52.936Z,98698.06
2023-02-22T17:49:19.996Z,98701.34
2023-02-22T17:51:49.896Z,98704.59
2023-02-22T17:54:17.537Z,98701.09
2023-02-22T17:56:44.705Z,98703.56
2023-02-22T17:59:12.924Z,98705.19
2023-02-22T18:01:40.019Z,98697.88
2023-02-22T18:04:06.877Z,98700.34
2023-02-22T18:06:33.831Z,98703.03
2023-02-22T18:09:01.716Z,98699.28
2023-02-22T18:11:32.504Z,98700.09
2023-02-22T18:13:59.732Z,98693.88
2023-02-22T18:16:28.196Z,98699.84
2023-02-22T18:18:55.808Z,98705.50
2023-02-22T18:21:23.451Z,98693.63
2023-02-22T18:23:50.400Z,98698.22
2023-02-22T18:26:19.427Z,98693.88
2023-02-22T18:28:48.746Z,98690.38
2023-02-22T18:31:17.793Z,98683.34
2023-02-22T18:33:48.587Z,98691.16
2023-02-22T18:36:16.409Z,98689.53
2023-02-22T18:38:44.558Z,98686.28
2023-02-22T18:41:13.216Z,98689.53
2023-02-22T18:43:40.804Z,98685.22
2023-02-22T18:46:09.448Z,98686.84
2023-02-22T18:48:36.673Z,98680.63
2023-02-22T18:51:07.298Z,98680.63
2023-02-22T18:53:34.154Z,98679.56
2023-02-22T18:56:03.840Z,98679.81
2023-02-22T18:58:32.829Z,98676.28
2023-02-22T19:01:00.184Z,98677.09
2023-02-22T19:03:27.707Z,98671.69
2023-02-22T19:05:56.104Z,98663.84
2023-02-22T19:08:24.308Z,98662.22
2023-02-22T19:10:51.225Z,98668.44
2023-02-22T19:13:18.963Z,98668.44
2023-02-22T19:15:45.803Z,98664.09
2023-02-22T19:18:13.069Z,98668.69
2023-02-22T19:23:10.456Z,98665.16
2023-02-22T19:25:42.588Z,98664.31
2023-02-22T19:28:09.636Z,98662.94
2023-02-22T19:30:36.490Z,98658.38
2023-02-22T19:33:04.894Z,98657.53
2023-02-22T19:35:31.831Z,98658.63
2023-02-22T19:37:58.822Z,98645.94
2023-02-22T19:40:26.585Z,98655.09
2023-02-22T19:42:57.819Z,98647.81
2023-02-22T19:45:25.090Z,98649.94
2023-02-22T19:47:54.600Z,98656.41
2023-02-22T19:50:22.013Z,98648.28
2023-02-22T19:52:48.859Z,98648.28
2023-02-22T19:55:15.918Z,98650.19
2023-02-22T19:57:46.433Z,98647.75
2023-02-22T20:00:24.097Z,98647.16
2023-02-22T20:03:05.593Z,98650.09
2023-02-22T20:05:33.436Z,98650.09
2023-02-22T20:08:00.335Z,98646.59
2023-02-22T20:10:27.349Z,98648.16
2023-02-22T20:12:54.177Z,98646.25
2023-02-22T20:15:23.997Z,98651.66
2023-02-22T20:17:51.288Z,98648.16
2023-02-22T20:20:18.751Z,98656.28
2023-02-22T20:22:45.746Z,98653.56
2023-02-22T20:25:13.617Z,98650.03
2023-02-22T20:27:40.860Z,98645.47
2023-02-22T20:30:10.463Z,98650.88
2023-02-22T20:32:39.666Z,98648.16
2023-02-22T20:35:07.686Z,98644.88
2023-02-22T20:37:35.544Z,98648.09
2023-02-22T20:40:04.179Z,98647.50
2023-02-22T20:42:31.979Z,98643.19
2023-02-22T20:45:01.888Z,98650.44
2023-02-22T20:47:28.774Z,98650.44
2023-02-22T20:49:57.004Z,98654.22
2023-02-22T20:52:23.844Z,98652.59
2023-02-22T20:54:50.731Z,98648.81
2023-02-22T20:57:17.632Z,98653.66
2023-02-22T20:59:45.930Z,98649.53
2023-02-22T21:02:12.838Z,98647.06
2023-02-22T21:04:40.024Z,98646.50
2023-02-22T21:07:08.310Z,98648.63
2023-02-22T21:09:35.195Z,98647.25
2023-02-22T21:12:02.077Z,98646.69
2023-02-22T21:14:30.920Z,98642.59
2023-02-22T21:16:57.749Z,98637.94
2023-02-22T21:19:27.320Z,98643.56
2023-02-22T21:21:55.655Z,98641.63
2023-02-22T21:24:25.666Z,98638.81
2023-02-22T21:26:52.607Z,98643.41
2023-02-22T21:29:19.579Z,98641.19
2023-02-22T21:31:46.603Z,98635.47
2023-02-22T21:34:17.471Z,98644.06
2023-02-22T21:36:45.170Z,98646.75
2023-02-22T21:39:18.116Z,98639.97
2023-02-22T21:41:48.082Z,98638.47
2023-02-22T21:44:15.541Z,98642.25
2023-02-22T21:46:43.072Z,98647.56
2023-02-22T21:49:11.323Z,98635.63
2023-02-22T21:51:38.432Z,98639.88
2023-02-22T21:54:08.313Z,98638.47
2023-02-22T21:56:36.833Z,98641.38
2023-02-22T21:59:06.572Z,98634.34
2023-02-22T22:01:35.789Z,98636.72
2023-02-22T22:04:04.068Z,98642.94
2023-02-22T22:06:33.205Z,98648.56
2023-02-22T22:09:00.963Z,98639.91
2023-02-22T22:11:30.608Z,98640.16
2023-02-22T22:13:58.817Z,98639.78
2023-02-22T22:16:29.798Z,98635.16
2023-02-22T22:18:57.319Z,98641.34
2023-02-22T22:21:24.652Z,98636.19
2023-02-22T22:23:56.016Z,98642.66
2023-02-22T22:26:24.655Z,98636.69
2023-02-22T22:28:53.534Z,98634.22
2023-02-22T22:31:23.728Z,98633.63
2023-02-22T22:33:53.369Z,98631.19
2023-02-22T22:36:21.646Z,98633.31
2023-02-22T22:38:48.598Z,98634.13
2023-02-22T22:41:18.895Z,98633.56
2023-02-22T22:43:46.918Z,98644.56
2023-02-22T22:46:16.224Z,98635.91
2023-02-22T22:48:47.039Z,98635.91
2023-02-22T22:51:19.749Z,98639.69
2023-02-22T22:53:48.866Z,98641.22
2023-02-22T22:56:17.815Z,98642.25
2023-02-22T22:58:48.616Z,98640.31
2023-02-22T23:01:19.739Z,98641.94
2023-02-22T23:03:53.949Z,98643.00
2023-02-22T23:06:24.947Z,98640.78
2023-02-22T23:09:00.040Z,98641.59
2023-02-22T23:11:28.700Z,98649.09
2023-02-22T23:13:56.430Z,98641.00
2023-02-22T23:16:24.165Z,98650.97
2023-02-22T23:18:51.496Z,98647.47
2023-02-22T23:21:19.789Z,98646.63
2023-02-22T23:23:51.620Z,98655.78
2023-02-22T23:26:18.565Z,98657.09
2023-02-22T23:28:47.687Z,98659.19
2023-02-22T23:31:16.914Z,98662.94
2023-02-22T23:33:45.438Z,98660.25
2023-02-22T23:36:12.490Z,98651.34
2023-02-22T23:38:40.043Z,98655.34
2023-02-22T23:41:10.592Z,98655.34
2023-02-22T23:43:40.570Z,98653.69
2023-02-22T23:46:10.814Z,98651.00
2023-02-22T23:48:39.544Z,98656.88
2023-02-22T23:51:09.155Z,98649.03
2023-02-22T23:53:38.437Z,98642.19
2023-02-22T23:56:10.101Z,98646.78
2023-02-22T23:58:38.298Z,98636.25
